MRLB

Details ICAO MRLB (LIR)
Name Daniel Oduber Quiros Intl
Region Costa Rica
Timezone America/Costa_Rica (UTC-6.0)
Plans Departing 105
Arriving 149
Stats Elevation 270 ft / 82 m (AMSL)
Location 10.593400° -85.544500°
Runways 1
Magnetic Variation 1.213° W
Sunrise 2019-02-22 12:01:28 UTC / 2019-02-22 06:01:28 Local
Sunset 2019-02-22 23:52:53 UTC / 2019-02-22 17:52:53 Local
Advertisement - Login to hide

Runways

ID Width Length Bearing (true/mag) Surface Threshold Overrun Markings Lighting
07 148 ft / 45 m 9,031 ft / 2,753 m 70.05° / 71.26° ASPHALT 0 ft / 0 m 0 ft / 0 m PREC-APP CENTERLINE EDGE THRESHOLD ALSF-II
25 148 ft / 45 m 9,031 ft / 2,753 m 250.05° / 251.27° ASPHALT 0 ft / 0 m 0 ft / 0 m PREC-APP CENTERLINE EDGE THRESHOLD ALSF-II

Map

Weather


0- 5 10 15 20 25 30 35+ Temperature / °C

Clouds and Precipitation
Forecast for 2019-02-22 18:00 UTC. Updated 2 hours ago

Ground ~20,000 ft ~40,000 ft Winds

METAR

MRLB 221700Z 08011KT 9999 FEW045 34/20 A2985 NOSIG

TAF

TAF MRLB 221100Z 2212/2312 08014KT 9999 FEW045 TX35/2219Z TN22/2312Z TEMPO 2212/2213 25003KT

Frequencies

Approach 119.80 MHz LIBERIA APP
Tower 118.80 MHz LIBERIA TWR
Ground 121.70 MHz
Warning: Do not use this data for real-world aviation or navigation. No guarantee of current accuracy is given.